Calp, Spain
Current Conditions -  °F | °C
As of 11:00 AM on Tuesday 27 Jan 2015 (Local Time) from LEAL Reporting Station
Few Clouds Few Clouds  
Wind Chill: 55°   Ceiling: Unl
Heat Index: 55°   Visibility: 6mi
Dew Point: 41°   Wind: 5mph
Humidity: 58%   Direction: 300°WNW
Pressure: 30.3"   Gusts: NA
Location:  38.64°N, 0.04°E
Report Text: LEAL 271000Z 30004KT 240V360 9999 FEW015 13/05 Q1026 NOSIG
Loading
Personal Weather Stations






























Interactive Weather Map New forecast layout! Learn more

10-Day Weather Forecast

Advertisements
Track Severe Weather on mobile